createdAt,value
2022-09-28T00:01:56.186Z,98871.03
2022-09-28T00:04:24.994Z,98876.25
2022-09-28T00:06:54.631Z,98867.50
2022-09-28T00:09:22.857Z,98864.91
2022-09-28T00:11:51.175Z,98854.44
2022-09-28T00:14:19.538Z,98860.56
2022-09-28T00:16:48.546Z,98850.97
2022-09-28T00:19:16.882Z,98841.34
2022-09-28T00:21:45.988Z,98839.63
2022-09-28T00:24:17.043Z,98829.16
2022-09-28T00:26:49.544Z,98834.41
2022-09-28T00:29:22.876Z,98840.50
2022-09-28T00:31:57.001Z,98833.50
2022-09-28T00:34:25.607Z,98820.41
2022-09-28T00:36:53.799Z,98826.50
2022-09-28T00:39:23.775Z,98811.63
2022-09-28T00:41:52.504Z,98805.47
2022-09-28T00:44:50.722Z,98802.94
2022-09-28T00:47:51.433Z,98795.94
2022-09-28T00:50:27.354Z,98799.31
2022-09-28T00:52:59.814Z,98793.16
2022-09-28T00:55:36.515Z,98784.47
2022-09-28T00:58:08.301Z,98785.16
2022-09-28T01:00:37.315Z,98778.25
2022-09-28T01:03:05.703Z,98773.00
2022-09-28T01:05:35.119Z,98767.78
2022-09-28T01:08:04.272Z,98773.00
2022-09-28T01:10:34.545Z,98768.63
2022-09-28T01:13:02.815Z,98758.97
2022-09-28T01:15:36.949Z,98753.75
2022-09-28T01:18:18.213Z,98750.22
2022-09-28T01:21:02.123Z,98752.84
2022-09-28T01:24:10.263Z,98745.91
2022-09-28T01:26:58.819Z,98741.44
2022-09-28T01:29:42.051Z,98734.38
2022-09-28T01:32:26.820Z,98741.28
2022-09-28T01:35:03.668Z,98746.38
2022-09-28T01:37:40.880Z,98742.81
2022-09-28T01:40:13.014Z,98739.28
2022-09-28T01:42:47.816Z,98736.56
2022-09-28T01:45:19.708Z,98737.56
2022-09-28T01:47:49.787Z,98722.66
2022-09-28T01:50:23.665Z,98730.34
2022-09-28T01:52:59.105Z,98722.34
2022-09-28T01:55:33.196Z,98724.78
2022-09-28T01:58:12.096Z,98722.94
2022-09-28T02:00:44.236Z,98724.63
2022-09-28T02:03:17.873Z,98715.84
2022-09-28T02:05:59.811Z,98715.84
2022-09-28T02:08:36.037Z,98718.38
2022-09-28T02:11:11.161Z,98721.00
2022-09-28T02:13:45.404Z,98713.06
2022-09-28T02:16:22.786Z,98708.69
2022-09-28T02:18:52.140Z,98701.69
2022-09-28T02:21:33.223Z,98696.44
2022-09-28T02:24:08.041Z,98699.13
2022-09-28T02:26:42.243Z,98687.81
2022-09-28T02:29:12.779Z,98684.25
2022-09-28T02:31:41.270Z,98689.50
2022-09-28T02:34:10.783Z,98698.28
2022-09-28T02:36:39.531Z,98685.19
2022-09-28T02:39:15.139Z,98693.22
2022-09-28T02:41:56.475Z,98693.16
2022-09-28T02:44:53.820Z,98697.59
2022-09-28T02:47:37.675Z,98702.75
2022-09-28T02:50:17.150Z,98698.44
2022-09-28T02:53:36.076Z,98702.84
2022-09-28T02:56:26.480Z,98693.31
2022-09-28T02:59:06.206Z,98672.44
2022-09-28T03:01:48.064Z,98679.50
2022-09-28T03:04:29.714Z,98680.50
2022-09-28T03:07:02.621Z,98678.00
2022-09-28T03:09:38.227Z,98677.16
2022-09-28T03:12:12.177Z,98678.16
2022-09-28T03:14:41.709Z,98679.16
2022-09-28T03:17:11.281Z,98686.06
2022-09-28T03:19:39.700Z,98680.00
2022-09-28T03:22:08.017Z,98692.19
2022-09-28T03:24:36.690Z,98692.19
2022-09-28T03:27:05.247Z,98696.47
2022-09-28T03:29:34.419Z,98695.53
2022-09-28T03:32:06.229Z,98690.31
2022-09-28T03:34:36.351Z,98691.16
2022-09-28T03:37:04.602Z,98685.91
2022-09-28T03:39:33.245Z,98699.94
2022-09-28T03:42:01.813Z,98693.84
2022-09-28T03:44:32.515Z,98699.09
2022-09-28T03:47:00.810Z,98693.84
2022-09-28T03:49:29.160Z,98685.22
2022-09-28T03:51:58.781Z,98681.88
2022-09-28T03:54:27.019Z,98685.41
2022-09-28T03:56:55.304Z,98678.63
2022-09-28T03:59:23.536Z,98678.78
2022-09-28T04:01:52.554Z,98678.97
2022-09-28T04:04:21.141Z,98680.78
2022-09-28T04:06:49.384Z,98675.72
2022-09-28T04:09:18.961Z,98678.34
2022-09-28T04:12:03.425Z,98674.88
2022-09-28T04:14:33.734Z,98686.19
2022-09-28T04:17:01.992Z,98680.97
2022-09-28T04:19:32.578Z,98686.19
2022-09-28T04:22:19.968Z,98688.81
2022-09-28T04:24:49.662Z,98684.50
2022-09-28T04:27:36.891Z,98673.25
2022-09-28T04:30:06.589Z,98686.34
2022-09-28T04:32:36.472Z,98685.50
2022-09-28T04:35:05.224Z,98688.97
2022-09-28T04:37:33.783Z,98686.34
2022-09-28T04:40:05.877Z,98698.50
2022-09-28T04:42:34.442Z,98695.13
2022-09-28T04:45:04.716Z,98702.03
2022-09-28T04:47:35.007Z,98692.50
2022-09-28T04:50:18.093Z,98697.75
2022-09-28T04:53:05.535Z,98693.41
2022-09-28T04:55:35.098Z,98692.59
2022-09-28T04:58:05.543Z,98701.38
2022-09-28T05:00:35.881Z,98703.13
2022-09-28T05:03:27.308Z,98710.16
2022-09-28T05:06:17.088Z,98716.28
2022-09-28T05:08:47.927Z,98727.59
2022-09-28T05:11:19.852Z,98721.44
2022-09-28T05:13:50.296Z,98724.91
2022-09-28T05:16:20.433Z,98730.03
2022-09-28T05:19:07.636Z,98730.91
2022-09-28T05:21:36.146Z,98730.81
2022-09-28T05:24:07.453Z,98727.38
2022-09-28T05:26:39.074Z,98728.22
2022-09-28T05:29:09.420Z,98724.81
2022-09-28T05:31:52.608Z,98730.19
2022-09-28T05:34:33.835Z,98741.53
2022-09-28T05:37:02.484Z,98744.22
2022-09-28T05:39:32.021Z,98751.13
2022-09-28T05:42:01.653Z,98759.91
2022-09-28T05:44:30.469Z,98751.28
2022-09-28T05:46:59.040Z,98748.75
2022-09-28T05:49:29.119Z,98755.84
2022-09-28T05:51:57.950Z,98756.81
2022-09-28T05:54:26.655Z,98761.38
2022-09-28T05:56:54.951Z,98760.69
2022-09-28T05:59:24.469Z,98762.50
2022-09-28T06:01:52.982Z,98763.50
2022-09-28T06:04:22.432Z,98767.00
2022-09-28T06:06:50.863Z,98773.66
2022-09-28T06:09:21.664Z,98779.47
2022-09-28T06:12:12.215Z,98776.44
2022-09-28T06:14:50.987Z,98769.75
2022-09-28T06:17:19.604Z,98782.06
2022-09-28T06:19:54.711Z,98785.94
2022-09-28T06:22:43.249Z,98784.38
2022-09-28T06:25:11.549Z,98787.91
2022-09-28T06:27:42.495Z,98792.31
2022-09-28T06:30:13.737Z,98789.00
2022-09-28T06:32:42.426Z,98792.56
2022-09-28T06:35:11.108Z,98788.38
2022-09-28T06:37:39.767Z,98795.47
2022-09-28T06:40:09.469Z,98803.75
2022-09-28T06:42:38.096Z,98809.16
2022-09-28T06:45:31.485Z,98798.69
2022-09-28T06:48:22.672Z,98795.91
2022-09-28T06:50:51.759Z,98798.16
2022-09-28T06:53:32.679Z,98802.09
2022-09-28T06:56:12.409Z,98798.09
2022-09-28T06:58:40.691Z,98805.81
2022-09-28T07:01:11.979Z,98803.03
2022-09-28T07:03:55.524Z,98811.00
2022-09-28T07:06:48.744Z,98813.69
2022-09-28T07:09:41.414Z,98815.47
2022-09-28T07:12:21.750Z,98814.97
2022-09-28T07:15:00.520Z,98816.41
2022-09-28T07:17:31.583Z,98814.41
2022-09-28T07:20:14.806Z,98825.72
2022-09-28T07:22:48.682Z,98828.50
2022-09-28T07:25:21.484Z,98834.66
2022-09-28T07:28:09.840Z,98832.06
2022-09-28T07:30:58.729Z,98841.47
2022-09-28T07:33:51.555Z,98852.13
2022-09-28T07:36:35.187Z,98847.63
2022-09-28T07:39:04.453Z,98864.41
2022-09-28T07:41:34.996Z,98857.38
2022-09-28T07:44:06.479Z,98859.44
2022-09-28T07:46:37.011Z,98864.59
2022-09-28T07:49:16.675Z,98868.72
2022-09-28T07:52:15.864Z,98863.63
2022-09-28T07:55:06.855Z,98865.38
2022-09-28T07:58:05.327Z,98872.66
2022-09-28T08:01:01.062Z,98875.81
2022-09-28T08:03:29.861Z,98883.31
2022-09-28T08:06:05.927Z,98888.25
2022-09-28T08:08:35.688Z,98896.16
2022-09-28T08:11:04.341Z,98896.38
2022-09-28T08:13:55.331Z,98901.16
2022-09-28T08:16:47.514Z,98901.22
2022-09-28T08:19:55.736Z,98910.94
2022-09-28T08:22:25.423Z,98913.09
2022-09-28T08:24:56.867Z,98913.22
2022-09-28T08:27:25.334Z,98914.22
2022-09-28T08:29:53.544Z,98914.59
2022-09-28T08:32:42.522Z,98911.97
2022-09-28T08:35:31.453Z,98914.84
2022-09-28T08:38:36.468Z,98924.59
2022-09-28T08:41:25.967Z,98932.84
2022-09-28T08:44:23.799Z,98921.47
2022-09-28T08:47:39.802Z,98930.88
2022-09-28T08:50:32.375Z,98928.19
2022-09-28T08:53:42.639Z,98929.56
2022-09-28T08:56:30.333Z,98926.88
2022-09-28T08:59:03.824Z,98935.25
2022-09-28T09:01:40.181Z,98932.47
2022-09-28T09:04:13.693Z,98940.06
2022-09-28T09:07:32.173Z,98943.38
2022-09-28T09:10:26.219Z,98939.97
2022-09-28T09:13:05.927Z,98938.25
2022-09-28T09:15:48.105Z,98940.75
2022-09-28T09:18:39.084Z,98948.91
2022-09-28T09:21:45.740Z,98949.56
2022-09-28T09:24:27.489Z,98941.34
2022-09-28T09:27:07.265Z,98943.56
2022-09-28T09:30:02.751Z,98942.59
2022-09-28T09:33:02.492Z,98943.72
2022-09-28T09:35:56.607Z,98935.75
2022-09-28T09:39:01.108Z,98929.84
2022-09-28T09:41:52.189Z,98921.00
2022-09-28T09:44:55.511Z,98926.47
2022-09-28T09:48:04.299Z,98923.06
2022-09-28T09:50:40.901Z,98936.84
2022-09-28T09:53:22.977Z,98931.69
2022-09-28T09:55:57.237Z,98931.78
2022-09-28T09:58:42.695Z,98937.94
2022-09-28T10:01:23.207Z,98934.56
2022-09-28T10:04:20.711Z,98933.84
2022-09-28T10:06:53.887Z,98927.22
2022-09-28T10:09:27.438Z,98932.88
2022-09-28T10:12:00.328Z,98939.53
2022-09-28T10:14:28.705Z,98925.00
2022-09-28T10:17:05.137Z,98925.84
2022-09-28T10:19:51.772Z,98933.91
2022-09-28T10:22:43.476Z,98932.34
2022-09-28T10:25:18.277Z,98939.78
2022-09-28T10:27:50.925Z,98934.06
2022-09-28T10:30:23.346Z,98928.88
2022-09-28T10:32:59.215Z,98935.09
2022-09-28T10:35:43.081Z,98945.75
2022-09-28T10:38:18.463Z,98935.50
2022-09-28T10:40:55.832Z,98933.69
2022-09-28T10:44:06.034Z,98941.13
2022-09-28T10:46:57.680Z,98943.31
2022-09-28T10:49:28.535Z,98949.84
2022-09-28T10:51:59.572Z,98947.34
2022-09-28T10:54:54.621Z,98955.81
2022-09-28T10:57:29.924Z,98954.41
2022-09-28T11:00:27.856Z,98949.84
2022-09-28T11:03:21.937Z,98955.44
2022-09-28T11:06:02.407Z,98963.06
2022-09-28T11:08:34.187Z,98947.31
2022-09-28T11:11:07.925Z,98950.28
2022-09-28T11:13:51.269Z,98951.41
2022-09-28T11:16:29.621Z,98955.75
2022-09-28T11:18:59.843Z,98954.00
2022-09-28T11:21:32.484Z,98958.56
2022-09-28T11:24:20.252Z,98952.47
2022-09-28T11:26:53.425Z,98959.97
2022-09-28T11:29:37.313Z,98959.50
2022-09-28T11:32:44.664Z,98954.91
2022-09-28T11:35:48.486Z,98959.53
2022-09-28T11:38:34.101Z,98961.06
2022-09-28T11:41:49.594Z,98959.06
2022-09-28T11:44:40.099Z,98959.50
2022-09-28T11:47:44.390Z,98962.72
2022-09-28T11:50:28.564Z,98960.91
2022-09-28T11:53:10.825Z,98967.44
2022-09-28T11:55:46.555Z,98962.97
2022-09-28T11:58:25.930Z,98960.41
2022-09-28T12:01:03.728Z,98954.47
2022-09-28T12:03:51.870Z,98967.31
2022-09-28T12:06:25.936Z,98964.03
2022-09-28T12:09:00.836Z,98957.19
2022-09-28T12:11:37.470Z,98957.94
2022-09-28T12:14:28.212Z,98949.84
2022-09-28T12:17:07.924Z,98948.41
2022-09-28T12:19:46.304Z,98951.78
2022-09-28T12:22:23.421Z,98950.56
2022-09-28T12:24:56.431Z,98946.34
2022-09-28T12:27:33.544Z,98944.28
2022-09-28T12:30:10.190Z,98941.72
2022-09-28T12:32:44.040Z,98940.81
2022-09-28T12:35:16.044Z,98951.38
2022-09-28T12:38:21.087Z,98945.41
2022-09-28T12:40:58.233Z,98951.00
2022-09-28T12:44:00.477Z,98947.69
2022-09-28T12:47:17.449Z,98953.47
2022-09-28T12:50:37.622Z,98951.34
2022-09-28T12:53:14.887Z,98953.13
2022-09-28T12:55:57.807Z,98944.31
2022-09-28T12:59:01.414Z,98943.94
2022-09-28T13:01:52.665Z,98946.13
2022-09-28T13:05:02.257Z,98946.41
2022-09-28T13:07:45.114Z,98945.19
2022-09-28T13:10:24.732Z,98946.72
2022-09-28T13:13:18.527Z,98955.47
2022-09-28T13:15:56.848Z,98958.28
2022-09-28T13:18:34.770Z,98946.72
2022-09-28T13:21:16.025Z,98951.59
2022-09-28T13:23:47.349Z,98949.47
2022-09-28T13:26:28.023Z,98946.81
2022-09-28T13:29:03.506Z,98950.91
2022-09-28T13:31:37.131Z,98947.97
2022-09-28T13:34:18.074Z,98944.13
2022-09-28T13:36:48.309Z,98941.19
2022-09-28T13:39:38.423Z,98949.69
2022-09-28T13:42:10.321Z,98952.91
2022-09-28T13:45:22.380Z,98955.03
2022-09-28T13:48:12.175Z,98952.97
2022-09-28T13:51:17.960Z,98948.97
2022-09-28T13:54:11.935Z,98954.69
2022-09-28T13:57:24.067Z,98958.50
2022-09-28T14:00:19.560Z,98952.25
2022-09-28T14:02:54.576Z,98958.88
2022-09-28T14:06:22.709Z,98950.44
2022-09-28T14:09:24.925Z,98950.22
2022-09-28T14:11:59.948Z,98951.84
2022-09-28T14:14:50.573Z,98950.44
2022-09-28T14:18:19.091Z,98954.88
2022-09-28T14:21:24.143Z,98953.06
2022-09-28T14:24:13.736Z,98946.25
2022-09-28T14:27:13.904Z,98951.72
2022-09-28T14:29:42.591Z,98946.00
2022-09-28T14:32:25.673Z,98952.13
2022-09-28T14:35:00.808Z,98947.94
2022-09-28T14:37:51.164Z,98954.91
2022-09-28T14:40:40.092Z,98946.09
2022-09-28T14:43:26.040Z,98945.28
2022-09-28T14:46:33.808Z,98944.97
2022-09-28T14:49:04.297Z,98948.97
2022-09-28T14:52:02.131Z,98954.34
2022-09-28T14:54:46.302Z,98953.91
2022-09-28T14:57:21.284Z,98958.28
2022-09-28T14:59:49.819Z,98957.56
2022-09-28T15:02:26.152Z,98958.63
2022-09-28T15:04:59.843Z,98962.78
2022-09-28T15:07:34.394Z,98955.31
2022-09-28T15:10:04.213Z,98964.66
2022-09-28T15:12:32.824Z,98971.13
2022-09-28T15:15:04.668Z,98967.19
2022-09-28T15:17:39.843Z,98969.56
2022-09-28T15:20:24.355Z,98970.63
2022-09-28T15:22:57.479Z,98967.81
2022-09-28T15:25:29.924Z,98977.63
2022-09-28T15:28:02.305Z,98978.31
2022-09-28T15:30:34.036Z,98980.78
2022-09-28T15:33:18.608Z,98985.19
2022-09-28T15:35:51.113Z,98983.44
2022-09-28T15:38:19.783Z,98984.13
2022-09-28T15:40:49.959Z,98989.13
2022-09-28T15:43:32.977Z,98985.03
2022-09-28T15:46:18.324Z,98982.56
2022-09-28T15:48:52.684Z,98984.47
2022-09-28T15:51:22.023Z,98986.41
2022-09-28T15:53:58.431Z,98986.63
2022-09-28T15:56:29.674Z,98998.25
2022-09-28T15:59:26.265Z,98999.41
2022-09-28T16:02:11.243Z,98995.41
2022-09-28T16:04:50.414Z,98994.91
2022-09-28T16:07:25.412Z,99006.75
2022-09-28T16:09:59.408Z,98997.25
2022-09-28T16:12:41.575Z,99004.22
2022-09-28T16:15:20.308Z,99007.22
2022-09-28T16:17:55.776Z,99001.41
2022-09-28T16:20:31.824Z,99006.16
2022-09-28T16:23:05.993Z,99002.97
2022-09-28T16:25:39.002Z,99004.16
2022-09-28T16:28:25.228Z,99007.22
2022-09-28T16:31:02.983Z,99013.75
2022-09-28T16:33:40.807Z,99010.47
2022-09-28T16:36:15.412Z,99009.00
2022-09-28T16:38:46.012Z,99014.59
2022-09-28T16:41:17.528Z,99013.97
2022-09-28T16:43:48.232Z,99014.38
2022-09-28T16:46:19.494Z,99010.34
2022-09-28T16:48:49.905Z,99019.63
2022-09-28T16:51:19.556Z,99020.00
2022-09-28T16:54:05.377Z,99021.28
2022-09-28T16:56:35.160Z,99021.56
2022-09-28T16:59:05.368Z,99015.66
2022-09-28T17:01:34.232Z,99028.09
2022-09-28T17:04:03.312Z,99025.66
2022-09-28T17:06:33.597Z,99020.59
2022-09-28T17:09:06.734Z,99031.31
2022-09-28T17:11:34.991Z,99029.00
2022-09-28T17:14:04.619Z,99027.63
2022-09-28T17:17:06.211Z,99030.66
2022-09-28T17:19:26.115Z,99031.88
2022-09-28T17:21:54.894Z,99032.38
2022-09-28T17:24:23.152Z,99044.06
2022-09-28T17:26:52.904Z,99045.31
2022-09-28T17:29:22.621Z,99044.75
2022-09-28T17:31:51.116Z,99045.13
2022-09-28T17:34:20.573Z,99042.88
2022-09-28T17:36:49.196Z,99046.75
2022-09-28T17:39:19.883Z,99043.56
2022-09-28T17:41:48.137Z,99044.88
2022-09-28T17:44:16.709Z,99060.97
2022-09-28T17:46:49.771Z,99057.84
2022-09-28T17:49:18.705Z,99065.22
2022-09-28T17:51:47.001Z,99069.09
2022-09-28T17:54:19.302Z,99071.38
2022-09-28T17:56:47.683Z,99066.66
2022-09-28T17:59:19.121Z,99068.91
2022-09-28T18:01:48.924Z,99070.13
2022-09-28T18:04:47.098Z,99071.31
2022-09-28T18:07:06.597Z,99076.13
2022-09-28T18:09:34.806Z,99073.84
2022-09-28T18:12:06.353Z,99065.44
2022-09-28T18:14:35.669Z,99068.44
2022-09-28T18:17:05.189Z,99072.13
2022-09-28T18:19:33.712Z,99077.56
2022-09-28T18:22:02.269Z,99072.38
2022-09-28T18:24:32.346Z,99071.59
2022-09-28T18:27:00.826Z,99073.50
2022-09-28T18:29:32.918Z,99068.41
2022-09-28T18:32:02.468Z,99072.91
2022-09-28T18:34:32.077Z,99077.38
2022-09-28T18:37:00.555Z,99086.22
2022-09-28T18:39:29.224Z,99075.88
2022-09-28T18:41:58.226Z,99074.28
2022-09-28T18:44:26.590Z,99083.19
2022-09-28T18:46:55.139Z,99086.94
2022-09-28T18:49:23.779Z,99088.88
2022-09-28T18:51:53.403Z,99085.56
2022-09-28T18:54:21.967Z,99091.09
2022-09-28T18:56:51.224Z,99100.00
2022-09-28T18:59:19.437Z,99102.91
2022-09-28T19:01:48.059Z,99104.06
2022-09-28T19:04:16.508Z,99105.16
2022-09-28T19:06:47.472Z,99095.75
2022-09-28T19:09:21.043Z,99099.34
2022-09-28T19:11:50.350Z,99106.44
2022-09-28T19:14:18.990Z,99111.69
2022-09-28T19:16:47.365Z,99106.50
2022-09-28T19:19:18.826Z,99103.97
2022-09-28T19:21:47.912Z,99117.28
2022-09-28T19:24:19.890Z,99112.91
2022-09-28T19:26:48.823Z,99114.78
2022-09-28T19:29:17.453Z,99108.00
2022-09-28T19:31:46.187Z,99124.88
2022-09-28T19:34:14.599Z,99118.84
2022-09-28T19:36:43.261Z,99119.44
2022-09-28T19:39:15.406Z,99124.50
2022-09-28T19:41:49.413Z,99125.09
2022-09-28T19:44:24.592Z,99124.84
2022-09-28T19:46:55.216Z,99131.31
2022-09-28T19:49:25.824Z,99136.88
2022-09-28T19:52:12.306Z,99133.63
2022-09-28T19:54:42.672Z,99144.44
2022-09-28T19:57:15.820Z,99139.50
2022-09-28T19:59:46.659Z,99144.06
2022-09-28T20:02:17.820Z,99146.84
2022-09-28T20:04:46.045Z,99155.72
2022-09-28T20:07:14.406Z,99150.63
2022-09-28T20:09:42.978Z,99153.34
2022-09-28T20:12:12.784Z,99149.09
2022-09-28T20:14:41.016Z,99152.63
2022-09-28T20:17:10.267Z,99154.47
2022-09-28T20:19:39.151Z,99163.28
2022-09-28T20:22:07.373Z,99159.03
2022-09-28T20:24:35.616Z,99161.72
2022-09-28T20:27:03.913Z,99158.34
2022-09-28T20:29:33.770Z,99167.09
2022-09-28T20:32:03.874Z,99167.25
2022-09-28T20:34:33.428Z,99162.84
2022-09-28T20:37:01.773Z,99174.19
2022-09-28T20:39:30.174Z,99173.44
2022-09-28T20:41:58.345Z,99153.38
2022-09-28T20:44:26.584Z,99161.22
2022-09-28T20:46:56.678Z,99163.84
2022-09-28T20:49:27.041Z,99154.31
2022-09-28T20:51:55.586Z,99163.84
2022-09-28T20:54:24.120Z,99164.72
2022-09-28T20:56:52.428Z,99167.25
2022-09-28T20:59:22.797Z,99170.81
2022-09-28T21:01:51.726Z,99168.94
2022-09-28T21:04:21.400Z,99164.63
2022-09-28T21:06:49.631Z,99161.19
2022-09-28T21:09:17.817Z,99167.25
2022-09-28T21:11:46.694Z,99175.22
2022-09-28T21:14:15.305Z,99172.66
2022-09-28T21:16:43.663Z,99179.72
2022-09-28T21:19:11.830Z,99163.31
2022-09-28T21:21:41.440Z,99176.50
2022-09-28T21:24:10.115Z,99173.94
2022-09-28T21:26:39.073Z,99172.41
2022-09-28T21:29:12.092Z,99169.84
2022-09-28T21:31:42.455Z,99169.09
2022-09-28T21:34:14.308Z,99172.63
2022-09-28T21:36:44.002Z,99177.09
2022-09-28T21:39:12.500Z,99169.38
2022-09-28T21:41:41.032Z,99172.91
2022-09-28T21:44:09.606Z,99171.38
2022-09-28T21:46:39.369Z,99179.38
2022-09-28T21:49:09.416Z,99170.72
2022-09-28T21:51:38.480Z,99170.84
2022-09-28T21:54:08.505Z,99170.13
2022-09-28T21:56:37.024Z,99174.69
2022-09-28T21:59:05.609Z,99169.56
2022-09-28T22:01:34.041Z,99170.56
2022-09-28T22:04:02.591Z,99177.72
2022-09-28T22:06:31.140Z,99185.72
2022-09-28T22:08:59.646Z,99181.47
2022-09-28T22:11:29.874Z,99179.91
2022-09-28T22:13:59.931Z,99183.59
2022-09-28T22:16:31.468Z,99188.13
2022-09-28T22:19:00.401Z,99187.47
2022-09-28T22:21:31.791Z,99186.81
2022-09-28T22:24:01.889Z,99182.66
2022-09-28T22:26:34.707Z,99189.84
2022-09-28T22:29:05.405Z,99188.28
2022-09-28T22:31:36.026Z,99196.28
2022-09-28T22:34:04.713Z,99189.50
2022-09-28T22:36:33.463Z,99186.09
2022-09-28T22:39:02.703Z,99178.44
2022-09-28T22:41:32.969Z,99178.56
2022-09-28T22:44:01.997Z,99194.41
2022-09-28T22:46:32.813Z,99198.00
2022-09-28T22:49:02.181Z,99206.91
2022-09-28T22:51:31.589Z,99200.13
2022-09-28T22:54:01.329Z,99202.88
2022-09-28T22:56:30.662Z,99187.44
2022-09-28T22:59:00.924Z,99189.38
2022-09-28T23:01:30.877Z,99192.13
2022-09-28T23:03:59.742Z,99177.50
2022-09-28T23:06:30.984Z,99177.63
2022-09-28T23:08:59.429Z,99181.97
2022-09-28T23:11:28.448Z,99182.06
2022-09-28T23:13:59.968Z,99185.59
2022-09-28T23:16:30.029Z,99179.56
2022-09-28T23:18:58.451Z,99180.50
2022-09-28T23:21:28.245Z,99181.53
2022-09-28T23:24:00.885Z,99192.25
2022-09-28T23:26:32.894Z,99184.66
2022-09-28T23:29:02.472Z,99183.97
2022-09-28T23:31:33.636Z,99185.97
2022-09-28T23:34:04.663Z,99186.97
2022-09-28T23:36:33.932Z,99195.75
2022-09-28T23:39:02.519Z,99196.72
2022-09-28T23:41:31.332Z,99188.03
2022-09-28T23:43:59.694Z,99191.56
2022-09-28T23:46:29.314Z,99193.25
2022-09-28T23:48:57.519Z,99197.56
2022-09-28T23:51:25.800Z,99198.34
2022-09-28T23:53:54.125Z,99196.53
2022-09-28T23:56:22.320Z,99194.69
2022-09-28T23:58:50.665Z,99193.66
